createdAt,value
2022-09-15T00:00:45.020Z,74.19
2022-09-15T00:03:11.418Z,75.20
2022-09-15T00:05:37.889Z,74.43
2022-09-15T00:08:04.238Z,74.08
2022-09-15T00:10:30.611Z,73.88
2022-09-15T00:12:56.961Z,74.39
2022-09-15T00:15:23.308Z,73.00
2022-09-15T00:17:49.665Z,72.43
2022-09-15T00:20:16.028Z,71.79
2022-09-15T00:22:42.359Z,73.03
2022-09-15T00:25:08.715Z,71.94
2022-09-15T00:27:35.081Z,72.38
2022-09-15T00:30:01.429Z,72.75
2022-09-15T00:32:27.783Z,72.98
2022-09-15T00:34:54.128Z,72.40
2022-09-15T00:37:20.504Z,72.76
2022-09-15T00:39:46.916Z,74.07
2022-09-15T00:42:13.300Z,74.06
2022-09-15T00:44:39.713Z,71.58
2022-09-15T00:47:18.828Z,72.95
2022-09-15T00:49:46.195Z,73.48
2022-09-15T00:52:12.534Z,74.00
2022-09-15T00:54:38.896Z,75.25
2022-09-15T00:57:05.255Z,75.47
2022-09-15T00:59:31.620Z,76.19
2022-09-15T01:01:58.028Z,76.01
2022-09-15T01:04:24.424Z,76.08
2022-09-15T01:06:50.807Z,76.10
2022-09-15T01:09:17.157Z,75.36
2022-09-15T01:11:43.577Z,75.88
2022-09-15T01:14:09.926Z,76.72
2022-09-15T01:16:36.304Z,77.99
2022-09-15T01:19:02.672Z,78.61
2022-09-15T01:21:29.039Z,78.64
2022-09-15T01:23:55.382Z,79.17
2022-09-15T01:26:21.754Z,78.90
2022-09-15T01:28:48.095Z,78.40
2022-09-15T01:31:14.536Z,78.43
2022-09-15T01:33:41.029Z,78.73
2022-09-15T01:36:07.364Z,78.51
2022-09-15T01:38:33.727Z,79.74
2022-09-15T01:41:00.084Z,80.12
2022-09-15T01:43:26.470Z,80.10
2022-09-15T01:45:52.874Z,79.52
2022-09-15T01:48:19.349Z,79.28
2022-09-15T01:50:45.701Z,79.04
2022-09-15T01:53:12.053Z,78.16
2022-09-15T01:55:38.421Z,77.36
2022-09-15T01:58:04.763Z,77.63
2022-09-15T02:00:31.134Z,77.52
2022-09-15T02:02:57.470Z,76.81
2022-09-15T02:05:23.880Z,75.60
2022-09-15T02:07:50.227Z,75.21
2022-09-15T02:10:16.555Z,76.31
2022-09-15T02:12:42.947Z,76.79
2022-09-15T02:15:09.379Z,76.60
2022-09-15T02:17:35.724Z,76.47
2022-09-15T02:20:02.069Z,76.51
2022-09-15T02:22:28.489Z,75.68
2022-09-15T02:24:54.826Z,75.18
2022-09-15T02:27:21.176Z,74.95
2022-09-15T02:29:47.530Z,74.85
2022-09-15T02:32:13.906Z,74.85
2022-09-15T02:34:40.265Z,75.09
2022-09-15T02:37:06.601Z,75.67
2022-09-15T02:39:32.959Z,75.19
2022-09-15T02:41:59.293Z,75.13
2022-09-15T02:44:25.668Z,75.13
2022-09-15T02:46:52.026Z,74.75
2022-09-15T02:49:18.379Z,74.76
2022-09-15T02:51:44.732Z,74.92
2022-09-15T02:54:11.072Z,75.11
2022-09-15T02:56:37.432Z,74.88
2022-09-15T02:59:03.789Z,75.10
2022-09-15T03:01:30.224Z,74.13
2022-09-15T03:03:56.586Z,74.21
2022-09-15T03:06:22.956Z,74.28
2022-09-15T03:08:49.459Z,74.75
2022-09-15T03:11:15.880Z,75.85
2022-09-15T03:13:42.234Z,76.59
2022-09-15T03:16:08.616Z,76.35
2022-09-15T03:18:35.006Z,77.00
2022-09-15T03:21:01.367Z,77.10
2022-09-15T03:23:27.740Z,77.58
2022-09-15T03:25:54.084Z,78.08
2022-09-15T03:28:20.473Z,78.19
2022-09-15T03:30:46.825Z,78.21
2022-09-15T03:33:13.235Z,78.54
2022-09-15T03:35:39.583Z,77.78
2022-09-15T03:38:05.946Z,76.92
2022-09-15T03:40:32.337Z,77.00
2022-09-15T03:42:58.696Z,77.32
2022-09-15T03:45:25.106Z,77.26
2022-09-15T03:47:51.478Z,77.09
2022-09-15T03:50:17.894Z,77.12
2022-09-15T03:52:44.253Z,76.88
2022-09-15T03:55:10.661Z,77.09
2022-09-15T03:57:37.018Z,77.67
2022-09-15T04:00:03.373Z,77.17
2022-09-15T04:02:29.730Z,76.52
2022-09-15T04:04:56.075Z,76.18
2022-09-15T04:07:22.422Z,75.59
2022-09-15T04:09:48.778Z,74.83
2022-09-15T04:12:15.176Z,74.41
2022-09-15T04:14:41.523Z,74.33
2022-09-15T04:17:07.894Z,74.79
2022-09-15T04:19:34.267Z,75.41
2022-09-15T04:22:00.620Z,75.13
2022-09-15T04:24:27.005Z,75.11
2022-09-15T04:26:53.346Z,74.80
2022-09-15T04:29:19.698Z,74.56
2022-09-15T04:31:46.087Z,74.43
2022-09-15T04:34:12.481Z,74.00
2022-09-15T04:36:38.839Z,73.76
2022-09-15T04:39:05.187Z,74.53
2022-09-15T04:41:31.548Z,74.48
2022-09-15T04:43:57.915Z,74.84
2022-09-15T04:46:24.318Z,74.98
2022-09-15T04:48:50.730Z,75.10
2022-09-15T04:51:17.160Z,75.23
2022-09-15T04:53:43.507Z,74.67
2022-09-15T04:56:09.858Z,75.70
2022-09-15T04:58:36.331Z,76.11
2022-09-15T05:01:02.706Z,77.34
2022-09-15T05:03:29.134Z,77.58
2022-09-15T05:05:55.485Z,77.89
2022-09-15T05:08:21.857Z,77.57
2022-09-15T05:10:48.226Z,78.44
2022-09-15T05:13:14.599Z,78.50
2022-09-15T05:15:41.086Z,77.79
2022-09-15T05:18:07.518Z,77.28
2022-09-15T05:20:33.907Z,77.54
2022-09-15T05:23:00.273Z,77.17
2022-09-15T05:25:26.658Z,77.35
2022-09-15T05:27:53.008Z,77.20
2022-09-15T05:33:05.757Z,76.72
2022-09-15T05:35:32.137Z,75.80
2022-09-15T05:37:58.500Z,75.71
2022-09-15T05:40:24.898Z,74.82
2022-09-15T05:42:51.274Z,75.18
2022-09-15T05:45:17.632Z,73.92
2022-09-15T05:47:43.994Z,74.65
2022-09-15T05:50:10.370Z,75.03
2022-09-15T05:52:36.738Z,75.00
2022-09-15T05:55:03.102Z,75.23
2022-09-15T05:57:29.514Z,75.09
2022-09-15T05:59:55.885Z,74.65
2022-09-15T06:02:22.266Z,75.12
2022-09-15T06:04:48.662Z,75.25
2022-09-15T06:07:15.013Z,75.71
2022-09-15T06:09:41.576Z,76.34
2022-09-15T06:12:08.940Z,76.42
2022-09-15T06:14:35.304Z,76.25
2022-09-15T06:17:01.667Z,75.68
2022-09-15T06:19:28.164Z,75.00
2022-09-15T06:21:54.540Z,74.60
2022-09-15T06:24:20.904Z,74.18
2022-09-15T06:26:47.247Z,74.14
2022-09-15T06:29:13.599Z,73.92
2022-09-15T06:31:40.081Z,74.17
2022-09-15T06:34:06.468Z,74.70
2022-09-15T06:36:32.813Z,74.29
2022-09-15T06:38:59.186Z,74.99
2022-09-15T06:41:25.533Z,74.74
2022-09-15T06:43:51.986Z,75.43
2022-09-15T06:46:18.490Z,75.47
2022-09-15T06:48:48.167Z,74.41
2022-09-15T06:51:14.955Z,74.44
2022-09-15T06:53:41.296Z,73.92
2022-09-15T06:56:07.724Z,74.27
2022-09-15T06:58:34.079Z,74.10
2022-09-15T07:01:00.453Z,73.12
2022-09-15T07:08:55.074Z,73.30
2022-09-15T07:11:21.501Z,74.06
2022-09-15T07:13:47.902Z,76.30
2022-09-15T07:16:14.321Z,75.67
2022-09-15T07:18:43.319Z,76.20
2022-09-15T07:21:10.116Z,75.32
2022-09-15T07:23:36.468Z,75.87
2022-09-15T07:26:02.824Z,75.15
2022-09-15T07:28:29.192Z,75.48
2022-09-15T07:30:55.553Z,74.98
2022-09-15T07:33:21.947Z,73.86
2022-09-15T07:35:48.302Z,75.27
2022-09-15T07:38:14.673Z,74.74
2022-09-15T07:40:41.033Z,75.64
2022-09-15T07:43:07.404Z,77.32
2022-09-15T07:45:33.822Z,76.98
2022-09-15T07:48:00.215Z,77.50
2022-09-15T07:50:26.585Z,78.18
2022-09-15T07:52:52.952Z,76.53
2022-09-15T07:55:19.396Z,77.67
2022-09-15T07:57:45.769Z,76.97
2022-09-15T08:00:12.203Z,77.11
2022-09-15T08:02:38.654Z,77.63
2022-09-15T08:05:05.009Z,78.48
2022-09-15T08:07:31.371Z,77.84
2022-09-15T08:09:57.830Z,75.65
2022-09-15T08:12:24.198Z,77.49
2022-09-15T08:14:50.690Z,76.52
2022-09-15T08:17:17.090Z,77.02
2022-09-15T08:19:43.451Z,75.63
2022-09-15T08:22:09.835Z,74.51
2022-09-15T08:24:36.173Z,75.62
2022-09-15T08:27:02.534Z,74.40
2022-09-15T08:29:28.991Z,73.37
2022-09-15T08:31:55.410Z,74.03
2022-09-15T08:34:21.945Z,72.15
2022-09-15T08:36:48.293Z,72.61
2022-09-15T08:39:14.652Z,71.36
2022-09-15T08:41:41.035Z,72.28
2022-09-15T08:44:07.376Z,72.65
2022-09-15T08:46:33.794Z,72.78
2022-09-15T08:49:02.965Z,72.09
2022-09-15T08:51:29.623Z,71.60
2022-09-15T08:53:56.122Z,71.44
2022-09-15T08:56:22.471Z,71.54
2022-09-15T08:58:48.809Z,71.94
2022-09-15T09:01:15.223Z,72.15
2022-09-15T09:03:41.590Z,71.94
2022-09-15T09:06:07.997Z,72.05
2022-09-15T09:08:34.377Z,71.57
2022-09-15T09:11:00.735Z,71.53
2022-09-15T09:13:27.117Z,73.02
2022-09-15T09:15:53.589Z,72.45
2022-09-15T09:18:20.024Z,72.62
2022-09-15T09:20:46.388Z,72.50
2022-09-15T09:23:12.739Z,72.29
2022-09-15T09:25:39.075Z,70.71
2022-09-15T09:28:06.074Z,70.03
2022-09-15T09:30:32.435Z,69.67
2022-09-15T09:32:58.799Z,68.55
2022-09-15T09:35:25.161Z,68.04
2022-09-15T09:37:51.528Z,67.54
2022-09-15T09:40:17.956Z,68.01
2022-09-15T09:42:44.459Z,69.72
2022-09-15T09:45:10.821Z,70.26
2022-09-15T09:47:37.218Z,69.55
2022-09-15T09:50:03.604Z,70.98
2022-09-15T09:52:30.120Z,69.47
2022-09-15T09:54:56.488Z,67.87
2022-09-15T09:57:22.883Z,68.30
2022-09-15T09:59:49.255Z,68.04
2022-09-15T10:02:15.595Z,67.96
2022-09-15T10:04:42.159Z,70.26
2022-09-15T10:07:08.531Z,68.46
2022-09-15T10:09:34.878Z,69.29
2022-09-15T10:12:01.231Z,69.37
2022-09-15T10:14:27.594Z,69.92
2022-09-15T10:16:54.035Z,70.09
2022-09-15T10:19:20.419Z,71.00
2022-09-15T10:21:46.787Z,70.75
2022-09-15T10:24:17.583Z,69.68
2022-09-15T10:26:44.551Z,70.12
2022-09-15T10:29:10.941Z,70.26
2022-09-15T10:31:37.344Z,70.58
2022-09-15T10:34:03.838Z,70.53
2022-09-15T10:36:30.200Z,69.93
2022-09-15T10:38:56.572Z,69.53
2022-09-15T10:41:22.923Z,71.48
2022-09-15T10:43:49.262Z,70.95
2022-09-15T10:46:15.691Z,68.12
2022-09-15T10:48:42.121Z,68.00
2022-09-15T10:51:08.469Z,69.15
2022-09-15T10:53:34.850Z,68.14
2022-09-15T10:56:01.216Z,68.98
2022-09-15T10:58:27.592Z,69.60
2022-09-15T11:00:54.008Z,70.39
2022-09-15T11:03:20.453Z,71.06
2022-09-15T11:05:46.820Z,71.64
2022-09-15T11:08:13.208Z,73.00
2022-09-15T11:10:39.607Z,72.75
2022-09-15T11:13:05.988Z,71.60
2022-09-15T11:15:32.369Z,71.52
2022-09-15T11:17:58.711Z,70.72
2022-09-15T11:20:25.135Z,71.71
2022-09-15T11:22:51.523Z,70.59
2022-09-15T11:25:17.891Z,70.22
2022-09-15T11:27:44.287Z,69.09
2022-09-15T11:30:10.649Z,70.52
2022-09-15T11:32:37.059Z,70.88
2022-09-15T11:35:03.434Z,70.22
2022-09-15T11:37:30.836Z,70.41
2022-09-15T11:39:57.237Z,69.05
2022-09-15T11:42:23.631Z,70.19
2022-09-15T11:44:50.064Z,70.41
2022-09-15T11:47:16.418Z,70.81
2022-09-15T11:49:42.760Z,68.84
2022-09-15T11:52:09.134Z,68.58
2022-09-15T11:54:38.378Z,69.05
2022-09-15T11:57:04.732Z,69.79
2022-09-15T11:59:31.106Z,71.54
2022-09-15T12:01:57.529Z,71.61
2022-09-15T12:04:24.093Z,73.05
2022-09-15T12:06:50.483Z,71.83
2022-09-15T12:09:16.854Z,72.58
2022-09-15T12:11:43.199Z,72.26
2022-09-15T12:14:09.607Z,72.96
2022-09-15T12:16:35.981Z,74.96
2022-09-15T12:19:02.334Z,73.24
2022-09-15T12:21:28.686Z,73.42
2022-09-15T12:23:55.033Z,74.76
2022-09-15T12:26:21.469Z,74.09
2022-09-15T12:28:47.852Z,75.30
2022-09-15T12:31:14.277Z,76.13
2022-09-15T12:33:40.676Z,74.92
2022-09-15T12:36:07.020Z,77.33
2022-09-15T12:38:33.377Z,76.27
2022-09-15T12:40:59.717Z,77.77
2022-09-15T12:43:26.067Z,77.58
2022-09-15T12:45:55.507Z,77.07
2022-09-15T12:48:21.899Z,78.70
2022-09-15T12:50:48.265Z,79.05
2022-09-15T12:53:14.623Z,80.28
2022-09-15T12:55:41.156Z,80.19
2022-09-15T12:58:07.550Z,79.49
2022-09-15T13:00:33.904Z,79.10
2022-09-15T13:03:00.341Z,78.35
2022-09-15T13:05:26.759Z,78.02
2022-09-15T13:07:53.129Z,78.58
2022-09-15T13:10:19.509Z,77.96
2022-09-15T13:12:45.864Z,77.32
2022-09-15T13:15:12.297Z,74.05
2022-09-15T13:17:38.708Z,75.30
2022-09-15T13:20:05.076Z,75.25
2022-09-15T13:22:31.478Z,73.56
2022-09-15T13:25:00.838Z,72.64
2022-09-15T13:27:28.072Z,71.25
2022-09-15T13:29:54.497Z,68.03
2022-09-15T13:32:20.915Z,68.07
2022-09-15T13:35:09.736Z,67.62
2022-09-15T13:40:20.125Z,68.22
2022-09-15T13:42:46.549Z,66.80
2022-09-15T13:45:12.987Z,63.30
2022-09-15T13:47:39.371Z,65.01
2022-09-15T13:50:05.728Z,64.98
2022-09-15T13:52:32.071Z,65.82
2022-09-15T13:54:58.488Z,66.61
2022-09-15T13:58:54.574Z,68.11
2022-09-15T14:00:17.067Z,68.05
2022-09-15T14:02:46.021Z,69.51
2022-09-15T14:05:12.399Z,67.91
2022-09-15T14:07:38.769Z,68.63
2022-09-15T14:10:05.142Z,66.14
2022-09-15T14:12:31.508Z,66.07
2022-09-15T14:14:57.950Z,67.42
2022-09-15T14:17:24.330Z,65.99
2022-09-15T14:19:50.685Z,63.79
2022-09-15T14:22:17.054Z,62.67
2022-09-15T14:24:43.434Z,61.87
2022-09-15T14:27:09.779Z,59.61
2022-09-15T14:29:36.166Z,61.54
2022-09-15T14:32:02.550Z,62.37
2022-09-15T14:34:29.789Z,64.45
2022-09-15T14:36:58.926Z,64.15
2022-09-15T14:39:26.706Z,66.20
2022-09-15T14:41:53.118Z,66.58
2022-09-15T14:45:55.224Z,68.69
2022-09-15T14:47:05.872Z,67.68
2022-09-15T14:49:32.240Z,68.09
2022-09-15T14:51:58.609Z,67.95
2022-09-15T14:54:24.943Z,69.16
2022-09-15T14:56:51.313Z,69.68
2022-09-15T14:59:17.664Z,69.45
2022-09-15T15:01:44.091Z,69.62
2022-09-15T15:04:10.512Z,69.12
2022-09-15T15:06:36.881Z,69.76
2022-09-15T15:09:03.352Z,69.52
2022-09-15T15:11:29.763Z,68.95
2022-09-15T15:13:56.137Z,68.53
2022-09-15T15:16:22.599Z,68.02
2022-09-15T15:18:48.971Z,67.17
2022-09-15T15:21:15.341Z,68.34
2022-09-15T15:23:45.884Z,69.15
2022-09-15T15:26:13.174Z,69.32
2022-09-15T15:28:39.527Z,69.70
2022-09-15T15:31:05.931Z,69.62
2022-09-15T15:33:32.297Z,72.79
2022-09-15T15:35:58.682Z,72.44
2022-09-15T15:38:25.054Z,71.72
2022-09-15T15:40:51.424Z,72.75
2022-09-15T15:43:17.761Z,72.71
2022-09-15T15:45:44.222Z,72.71
2022-09-15T15:48:10.600Z,72.32
2022-09-15T15:50:37.004Z,70.68
2022-09-15T15:53:03.360Z,71.06
2022-09-15T15:55:29.739Z,72.01
2022-09-15T15:57:56.081Z,72.41
2022-09-15T16:00:22.464Z,72.77
2022-09-15T16:02:48.854Z,71.89
2022-09-15T16:05:15.209Z,70.63
2022-09-15T16:07:41.629Z,71.11
2022-09-15T16:10:08.005Z,73.35
2022-09-15T16:12:35.461Z,74.91
2022-09-15T16:15:02.067Z,74.91
2022-09-15T16:17:28.435Z,74.07
2022-09-15T16:19:54.793Z,74.96
2022-09-15T16:22:21.158Z,75.07
2022-09-15T16:24:47.510Z,74.35
2022-09-15T16:27:13.880Z,73.96
2022-09-15T16:29:40.409Z,75.30
2022-09-15T16:32:06.881Z,77.96
2022-09-15T16:34:33.244Z,77.23
2022-09-15T16:36:59.592Z,77.67
2022-09-15T16:39:25.973Z,78.59
2022-09-15T16:41:52.389Z,79.15
2022-09-15T16:44:18.833Z,80.62
2022-09-15T16:46:45.216Z,83.29
2022-09-15T16:49:11.692Z,84.10
2022-09-15T16:51:38.062Z,84.58
2022-09-15T16:54:04.415Z,85.12
2022-09-15T16:56:30.778Z,83.49
2022-09-15T16:59:00.494Z,84.54
2022-09-15T17:01:27.152Z,83.40
2022-09-15T17:03:53.658Z,84.27
2022-09-15T17:06:20.112Z,83.91
2022-09-15T17:08:46.560Z,83.38
2022-09-15T17:11:16.244Z,83.79
2022-09-15T17:13:43.178Z,85.47
2022-09-15T17:16:09.635Z,87.51
2022-09-15T17:18:36.039Z,87.02
2022-09-15T17:21:02.410Z,87.98
2022-09-15T17:23:28.822Z,86.41
2022-09-15T17:25:55.221Z,86.22
2022-09-15T17:28:21.567Z,86.65
2022-09-15T17:30:47.919Z,86.36
2022-09-15T17:33:14.259Z,86.14
2022-09-15T17:35:40.644Z,86.44
2022-09-15T17:38:06.996Z,86.77
2022-09-15T17:40:33.478Z,87.09
2022-09-15T17:42:59.859Z,86.25
2022-09-15T17:45:26.214Z,86.19
2022-09-15T17:47:52.641Z,86.31
2022-09-15T17:50:19.008Z,85.69
2022-09-15T17:52:45.400Z,84.91
2022-09-15T17:55:11.765Z,85.54
2022-09-15T17:57:38.150Z,85.36
2022-09-15T18:00:04.512Z,85.61
2022-09-15T18:02:30.920Z,85.73
2022-09-15T18:04:57.316Z,85.58
2022-09-15T18:07:23.734Z,85.58
2022-09-15T18:09:50.099Z,85.78
2022-09-15T18:12:16.428Z,86.21
2022-09-15T18:14:42.814Z,86.15
2022-09-15T18:17:09.219Z,85.26
2022-09-15T18:19:35.588Z,85.28
2022-09-15T18:22:01.974Z,85.23
2022-09-15T18:24:28.346Z,86.11
2022-09-15T18:26:54.742Z,86.40
2022-09-15T18:29:21.098Z,84.91
2022-09-15T18:31:47.474Z,84.63
2022-09-15T18:34:13.881Z,84.83
2022-09-15T18:36:40.274Z,84.36
2022-09-15T18:39:06.673Z,83.08
2022-09-15T18:41:33.022Z,83.49
2022-09-15T18:43:59.455Z,84.25
2022-09-15T18:46:25.925Z,84.14
2022-09-15T18:48:52.390Z,83.23
2022-09-15T18:51:24.084Z,83.74
2022-09-15T18:53:54.027Z,83.52
2022-09-15T18:56:20.907Z,83.38
2022-09-15T18:58:47.266Z,83.45
2022-09-15T19:01:13.787Z,83.09
2022-09-15T19:03:44.096Z,83.20
2022-09-15T19:06:10.737Z,83.32
2022-09-15T19:08:37.103Z,82.82
2022-09-15T19:11:03.440Z,82.93
2022-09-15T19:13:29.804Z,82.90
2022-09-15T19:15:56.368Z,82.97
2022-09-15T19:18:22.743Z,82.52
2022-09-15T19:20:49.212Z,82.03
2022-09-15T19:23:15.584Z,81.79
2022-09-15T19:25:41.936Z,82.50
2022-09-15T19:28:08.311Z,81.82
2022-09-15T19:30:34.772Z,81.05
2022-09-15T19:33:01.180Z,80.25
2022-09-15T19:35:27.517Z,80.29
2022-09-15T19:37:53.864Z,80.13
2022-09-15T19:40:20.352Z,79.78
2022-09-15T19:42:46.966Z,79.29
2022-09-15T19:45:13.316Z,79.13
2022-09-15T19:47:39.682Z,78.85
2022-09-15T19:50:06.045Z,78.71
2022-09-15T19:52:32.490Z,78.28
2022-09-15T19:54:59.728Z,78.62
2022-09-15T19:57:26.080Z,78.33
2022-09-15T19:59:52.479Z,78.32
2022-09-15T20:02:18.861Z,77.92
2022-09-15T20:04:45.259Z,77.85
2022-09-15T20:07:11.609Z,77.81
2022-09-15T20:09:37.982Z,77.17
2022-09-15T20:12:04.327Z,77.32
2022-09-15T20:14:30.673Z,76.98
2022-09-15T20:17:00.303Z,76.31
2022-09-15T20:19:27.744Z,76.19
2022-09-15T20:21:54.158Z,75.73
2022-09-15T20:24:20.535Z,76.23
2022-09-15T20:26:46.887Z,75.98
2022-09-15T20:29:13.310Z,77.84
2022-09-15T20:31:39.719Z,76.88
2022-09-15T20:34:06.116Z,78.48
2022-09-15T20:36:32.474Z,78.50
2022-09-15T20:38:58.834Z,79.27
2022-09-15T20:41:25.210Z,79.79
2022-09-15T20:43:51.613Z,79.31
2022-09-15T20:46:18.100Z,78.81
2022-09-15T20:48:44.497Z,78.34
2022-09-15T20:51:10.843Z,77.54
2022-09-15T20:53:37.238Z,77.37
2022-09-15T20:56:03.647Z,76.95
2022-09-15T20:58:30.049Z,76.63
2022-09-15T21:00:56.429Z,76.88
2022-09-15T21:03:22.826Z,76.21
2022-09-15T21:05:49.221Z,75.93
2022-09-15T21:08:15.598Z,75.52
2022-09-15T21:10:41.963Z,75.02
2022-09-15T21:13:08.473Z,75.97
2022-09-15T21:15:34.821Z,76.70
2022-09-15T21:18:01.199Z,76.98
2022-09-15T21:20:27.588Z,76.54
2022-09-15T21:22:53.955Z,76.35
2022-09-15T21:25:20.317Z,75.28
2022-09-15T21:27:46.698Z,76.35
2022-09-15T21:30:13.173Z,76.52
2022-09-15T21:32:39.569Z,75.94
2022-09-15T21:35:06.007Z,75.21
2022-09-15T21:37:32.350Z,74.55
2022-09-15T21:39:58.758Z,74.33
2022-09-15T21:42:25.145Z,74.33
2022-09-15T21:44:51.589Z,74.80
2022-09-15T21:47:17.983Z,75.22
2022-09-15T21:49:46.707Z,75.93
2022-09-15T21:52:13.118Z,75.94
2022-09-15T21:54:39.473Z,76.54
2022-09-15T21:57:05.836Z,76.21
2022-09-15T21:59:32.254Z,76.09
2022-09-15T22:01:58.675Z,75.78
2022-09-15T22:04:25.069Z,75.36
2022-09-15T22:06:51.477Z,75.49
2022-09-15T22:09:17.876Z,74.73
2022-09-15T22:11:44.333Z,74.55
2022-09-15T22:14:10.704Z,74.75
2022-09-15T22:16:37.122Z,74.09
2022-09-15T22:19:03.539Z,73.87
2022-09-15T22:21:29.984Z,73.63
2022-09-15T22:23:56.329Z,73.90
2022-09-15T22:26:22.757Z,73.84
2022-09-15T22:28:49.121Z,74.15
2022-09-15T22:31:15.588Z,73.88
2022-09-15T22:33:42.007Z,72.34
2022-09-15T22:36:08.364Z,72.59
2022-09-15T22:38:34.694Z,73.13
2022-09-15T22:41:01.052Z,72.84
2022-09-15T22:43:27.417Z,72.35
2022-09-15T22:45:53.866Z,72.23
2022-09-15T22:48:20.326Z,72.56
2022-09-15T22:50:46.680Z,72.84
2022-09-15T22:53:13.050Z,72.66
2022-09-15T22:55:39.409Z,72.12
2022-09-15T22:58:05.810Z,71.94
2022-09-15T23:00:32.204Z,72.41
2022-09-15T23:02:58.590Z,72.37
2022-09-15T23:05:24.960Z,71.75
2022-09-15T23:07:51.330Z,71.94
2022-09-15T23:10:17.703Z,72.62
2022-09-15T23:12:44.068Z,72.66
2022-09-15T23:15:10.435Z,72.59
2022-09-15T23:17:36.780Z,72.55
2022-09-15T23:20:03.160Z,72.40
2022-09-15T23:22:29.537Z,72.09
2022-09-15T23:24:55.887Z,71.36
2022-09-15T23:27:22.329Z,71.21
2022-09-15T23:29:48.674Z,71.12
2022-09-15T23:32:15.087Z,71.15
2022-09-15T23:34:41.473Z,71.40
2022-09-15T23:37:07.828Z,71.37
2022-09-15T23:39:34.188Z,71.59
2022-09-15T23:42:00.548Z,71.79
2022-09-15T23:44:26.986Z,71.49
2022-09-15T23:46:53.384Z,70.80
2022-09-15T23:49:19.748Z,70.93
2022-09-15T23:51:46.094Z,71.26
2022-09-15T23:54:12.440Z,71.33
2022-09-15T23:56:38.847Z,71.47
2022-09-15T23:59:05.220Z,71.74
